Terminal Aerodrome Forecast
Issued by NWS

Home | Current Version | Previous Version | Text Only | Print | Product List | Glossary On
Versions: 1 2 3 4 5 6 7 8 9 10 11 12 13 14 15
000
FTUS46 KPDT 192300
TAFDLS
TAF
KDLS 192324Z 2000/2024 28026G35KT P6SM SCT090 BKN150
     FM200300 30014G24KT P6SM SCT050
     FM200800 29008KT P6SM SKC
     FM201200 VRB04KT P6SM SCT200
     FM201900 08006KT P6SM SCT150 BKN200=

USA.gov is the U.S. government's official web portal to all federal, state and local government web resources and services.